Time;durP1;ratioP1;P1;durP2;ratioP2;P2;SDS_P1;SDS_P2;PMS_P1;PMS_P2;Temp;Humidity;BMP_temperature;BMP_pressure;BME280_temperature;BME280_humidity;BME280_pressure;Samples;Min_cycle;Max_cycle;Signal;HPM_P1;HPM_P2
2022/11/13 00:01:23;;;;;;;81.32;43.75;;;;;;;8.85;98.54;101909.74;1710156;83;25453;-65
2022/11/13 00:03:52;;;;;;;74.27;42.78;;;;;;;8.86;98.57;101910.03;1710180;83;25470;-65
2022/11/13 00:06:20;;;;;;;;;;;;;;;8.82;98.70;101907.58;1712679;83;27388;-65
2022/11/13 00:08:50;;;;;;;72.87;40.03;;;;;;;8.81;98.72;101905.14;1710068;83;25558;-65
2022/11/13 00:11:20;;;;;;;76.47;42.15;;;;;;;8.79;98.89;101906.20;1709930;83;25570;-64
2022/11/13 00:13:50;;;;;;;74.92;40.45;;;;;;;8.80;99.00;101902.95;1710001;83;25441;-64
2022/11/13 00:16:20;;;;;;;76.02;41.63;;;;;;;8.76;98.97;101897.27;1710144;83;25549;-64
2022/11/13 00:18:48;;;;;;;79.00;41.90;;;;;;;8.78;98.96;101897.02;1710117;83;27369;-64
2022/11/13 00:21:22;;;;;;;76.15;42.70;;;;;;;8.76;99.03;101900.51;1710047;83;25595;-63
2022/11/13 00:23:52;;;;;;;74.03;42.35;;;;;;;8.74;99.09;101899.41;1710110;83;25559;-64
2022/11/13 00:26:22;;;;;;;75.30;42.05;;;;;;;8.74;99.16;101904.00;1710177;83;25458;-63
2022/11/13 00:28:59;;;;;;;69.85;40.25;;;;;;;8.73;99.22;101901.82;1710297;83;25616;-64
2022/11/13 00:31:30;;;;;;;70.97;38.35;;;;;;;8.73;99.31;101893.73;1709597;83;27400;-64
2022/11/13 00:33:59;;;;;;;68.42;38.70;;;;;;;8.72;99.25;101897.52;1705602;84;25488;-64
2022/11/13 00:36:29;;;;;;;68.17;38.90;;;;;;;8.72;99.36;101900.21;1705719;84;25559;-64
2022/11/13 00:38:57;;;;;;;71.80;38.40;;;;;;;8.71;99.36;101904.52;1705776;84;26188;-64
2022/11/13 00:41:25;;;;;;;73.20;40.05;;;;;;;8.71;99.45;101908.02;1705692;84;25556;-64
2022/11/13 00:43:53;;;;;;;72.22;38.45;;;;;;;8.70;99.52;101903.70;1705684;84;27463;-64
2022/11/13 00:46:20;;;;;;;68.47;36.80;;;;;;;8.70;99.48;101914.50;1705714;84;25557;-64
2022/11/13 00:48:46;;;;;;;71.55;38.05;;;;;;;8.69;99.52;101907.46;1705675;84;25668;-64
2022/11/13 00:51:14;;;;;;;73.47;39.15;;;;;;;8.69;99.60;101903.96;1705642;84;25490;-64
2022/11/13 00:53:40;;;;;;;91.57;44.95;;;;;;;8.67;99.54;101903.41;1705670;84;25581;-64
2022/11/13 00:56:10;;;;;;;71.12;38.85;;;;;;;8.69;99.67;101901.27;1705630;84;29627;-64
2022/11/13 00:58:36;;;;;;;76.85;40.38;;;;;;;8.69;99.67;101898.02;1705585;84;25803;-64
2022/11/13 01:01:15;;;;;;;80.75;43.60;;;;;;;8.70;99.78;101899.66;1705610;84;25564;-64
2022/11/13 01:03:45;;;;;;;70.10;37.73;;;;;;;8.71;99.82;101896.42;1705958;84;25394;-64
2022/11/13 01:06:20;;;;;;;66.90;36.15;;;;;;;8.71;99.91;101887.78;1705675;84;25653;-64
2022/11/13 01:08:55;;;;;;;71.70;39.00;;;;;;;8.71;99.85;101885.08;1705190;83;29550;-64
2022/11/13 01:11:26;;;;;;;73.02;38.83;;;;;;;8.72;99.79;101879.17;1705632;84;25417;-64
2022/11/13 01:13:55;;;;;;;67.82;37.23;;;;;;;8.72;99.84;101883.22;1705667;84;25421;-64
2022/11/13 01:16:27;;;;;;;62.13;35.50;;;;;;;8.72;99.81;101881.33;1705653;84;25583;-64
2022/11/13 01:18:57;;;;;;;64.58;35.90;;;;;;;8.70;99.80;101876.73;1705829;84;25603;-64
2022/11/13 01:21:27;;;;;;;66.35;35.75;;;;;;;8.70;99.77;101885.34;1705667;84;27388;-64
2022/11/13 01:23:56;;;;;;;67.22;34.98;;;;;;;8.69;99.79;101879.14;1705557;84;25842;-64
2022/11/13 01:26:28;;;;;;;67.22;36.20;;;;;;;8.68;99.85;101880.74;1705806;84;25416;-64
2022/11/13 01:28:58;;;;;;;74.42;37.53;;;;;;;8.68;99.99;101877.50;1705613;84;25615;-64
2022/11/13 01:31:29;;;;;;;71.30;40.25;;;;;;;8.70;100.00;101873.20;1705682;84;25550;-64
2022/11/13 01:33:57;;;;;;;75.80;40.92;;;;;;;8.69;100.00;101873.74;1705902;84;28094;-64
2022/11/13 01:36:28;;;;;;;58.25;32.75;;;;;;;8.71;100.00;101872.14;1705568;84;25443;-64
2022/11/13 01:38:56;;;;;;;83.60;44.85;;;;;;;8.72;100.00;101871.08;1705911;84;25413;-64
2022/11/13 01:41:31;;;;;;;69.37;36.08;;;;;;;8.73;100.00;101864.59;1705605;84;25402;-64
2022/11/13 01:44:01;;;;;;;55.05;31.05;;;;;;;8.73;100.00;101865.40;1705930;84;25322;-64
2022/11/13 01:46:33;;;;;;;60.48;34.13;;;;;;;8.75;100.00;101865.14;1705681;84;27318;-64
2022/11/13 01:49:10;;;;;;;54.67;30.40;;;;;;;8.74;100.00;101864.34;1705774;84;25475;-64
2022/11/13 01:51:42;;;;;;;55.40;30.92;;;;;;;8.75;99.98;101862.45;1698668;83;25410;-64
2022/11/13 01:54:16;;;;;;;55.30;30.80;;;;;;;8.76;100.00;101861.39;1703711;83;26738;-64
2022/11/13 01:56:46;;;;;;;56.37;29.98;;;;;;;8.76;99.97;101860.04;1705685;84;25644;-64
2022/11/13 01:59:21;;;;;;;55.40;31.45;;;;;;;8.74;99.88;101858.94;1705845;84;27364;-64
2022/11/13 02:01:49;;;;;;;57.85;33.20;;;;;;;8.75;100.00;101858.40;1703913;83;25983;-64
2022/11/13 02:04:19;;;;;;;51.17;30.17;;;;;;;8.73;99.99;101865.40;1706026;84;25481;-64
2022/11/13 02:06:53;;;;;;;56.65;30.68;;;;;;;8.72;99.91;101857.59;1705672;84;25396;-64
2022/11/13 02:09:25;;;;;;;62.05;33.25;;;;;;;8.72;100.00;101857.59;1705904;84;25401;-64
2022/11/13 02:11:58;;;;;;;54.48;31.45;;;;;;;8.71;100.00;101860.80;1705658;84;28110;-64
2022/11/13 02:14:29;;;;;;;54.67;30.23;;;;;;;8.72;100.00;101850.84;1705726;84;25603;-64
2022/11/13 02:17:04;;;;;;;53.70;29.55;;;;;;;8.72;100.00;101853.55;1705574;84;25450;-64
2022/11/13 02:19:38;;;;;;;52.10;30.72;;;;;;;8.69;100.00;101845.96;1705991;84;25638;-65
2022/11/13 02:22:46;;;;;;;55.45;29.18;;;;;;;8.66;100.00;101851.33;1705563;83;25633;-65
2022/11/13 02:25:15;;;;;;;49.50;28.25;;;;;;;8.65;100.00;101855.11;1705881;84;27427;-64
2022/11/13 02:27:50;;;;;;;51.45;29.63;;;;;;;8.63;100.00;101845.09;1685021;84;25943;-64
2022/11/13 02:30:28;;;;;;;53.73;30.77;;;;;;;8.62;100.00;101839.44;1705955;84;25437;-64
2022/11/13 02:32:58;;;;;;;51.95;29.55;;;;;;;8.63;100.00;101846.98;1679922;84;25667;-64
2022/11/13 02:35:30;;;;;;;50.78;29.37;;;;;;;8.64;100.00;101855.36;1712309;83;25447;-64
2022/11/13 02:38:01;;;;;;;54.58;29.20;;;;;;;8.64;100.00;101853.47;1710166;83;27328;-64
2022/11/13 02:40:32;;;;;;;49.05;28.23;;;;;;;8.65;100.00;101842.14;1682024;85;25738;-64
2022/11/13 02:43:00;;;;;;;52.93;29.07;;;;;;;8.63;100.00;101843.73;1712223;83;25414;-64
2022/11/13 02:45:26;;;;;;;46.83;27.75;;;;;;;8.65;100.00;101846.19;1712134;83;25600;-64
2022/11/13 02:47:55;;;;;;;51.25;27.55;;;;;;;8.66;100.00;101850.52;1712193;83;25607;-64
2022/11/13 02:50:25;;;;;;;47.20;27.62;;;;;;;8.66;100.00;101843.23;1687621;83;27357;-64
2022/11/13 02:52:53;;;;;;;47.88;27.45;;;;;;;8.65;100.00;101846.19;1712133;83;25595;-64
2022/11/13 02:55:23;;;;;;;42.73;24.95;;;;;;;8.67;100.00;101847.56;1712210;83;25700;-64
2022/11/13 02:57:52;;;;;;;46.48;27.42;;;;;;;8.67;100.00;101838.13;1712190;83;25387;-62
2022/11/13 03:00:22;;;;;;;45.85;26.50;;;;;;;8.68;100.00;101842.43;1712376;83;25457;-63
2022/11/13 03:02:49;;;;;;;48.87;25.80;;;;;;;8.67;100.00;101834.63;1712325;83;27342;-64
2022/11/13 03:05:17;;;;;;;48.25;25.45;;;;;;;8.67;100.00;101838.13;1712101;83;25640;-64
2022/11/13 03:07:43;;;;;;;45.78;26.48;;;;;;;8.67;100.00;101835.97;1712172;83;25492;-64
2022/11/13 03:10:12;;;;;;;44.30;25.75;;;;;;;8.68;100.00;101840.28;1712161;83;25641;-64
2022/11/13 03:12:40;;;;;;;44.00;25.80;;;;;;;8.67;100.00;101838.67;1712252;83;25570;-64
2022/11/13 03:15:10;;;;;;;48.55;26.60;;;;;;;8.68;100.00;101844.33;1712114;83;27412;-64
2022/11/13 03:17:37;;;;;;;48.20;26.80;;;;;;;8.64;100.00;101840.53;1712162;83;25527;-64
2022/11/13 03:20:07;;;;;;;48.02;26.12;;;;;;;8.66;100.00;101848.62;1712165;83;25635;-64
2022/11/13 03:22:33;;;;;;;45.67;25.62;;;;;;;8.66;100.00;101849.97;1712224;83;25554;-64
2022/11/13 03:25:01;;;;;;;45.00;25.30;;;;;;;8.65;100.00;101846.19;1712209;83;25556;-64
2022/11/13 03:27:32;;;;;;;45.67;25.35;;;;;;;8.64;100.00;101849.97;1712171;83;27272;-64
2022/11/13 03:30:06;;;;;;;44.55;24.05;;;;;;;8.63;100.00;101854.53;1712097;83;25575;-64
2022/11/13 03:32:32;;;;;;;44.93;24.40;;;;;;;8.65;100.00;101860.50;1712092;83;25406;-64
2022/11/13 03:34:58;;;;;;;44.85;26.02;;;;;;;8.64;100.00;101854.82;1712464;83;27504;-64
2022/11/13 03:37:25;;;;;;;45.65;24.47;;;;;;;8.64;100.00;101855.36;1712511;83;25481;-64
2022/11/13 03:39:51;;;;;;;40.35;24.05;;;;;;;8.64;100.00;101856.17;1712384;83;26941;-64
2022/11/13 03:42:17;;;;;;;42.75;23.57;;;;;;;8.64;100.00;101860.76;1712095;83;25570;-64
2022/11/13 03:44:43;;;;;;;43.02;24.32;;;;;;;8.63;100.00;101857.23;1712125;83;25439;-64
2022/11/13 03:47:09;;;;;;;43.90;23.38;;;;;;;8.65;100.00;101852.92;1712125;83;26057;-64
2022/11/13 03:49:35;;;;;;;45.45;23.60;;;;;;;8.66;100.00;101856.72;1712205;83;25647;-64
2022/11/13 03:52:01;;;;;;;45.03;24.63;;;;;;;8.66;100.00;101850.52;1712127;82;27320;-64
2022/11/13 03:54:27;;;;;;;42.40;23.18;;;;;;;8.66;100.00;101849.97;1712021;83;25627;-64
2022/11/13 03:56:57;;;;;;;41.83;23.67;;;;;;;8.66;100.00;101849.97;1712132;83;25674;-64
2022/11/13 03:59:25;;;;;;;42.25;24.47;;;;;;;8.68;100.00;101859.16;1712174;83;25478;-64
2022/11/13 04:01:55;;;;;;;41.80;23.27;;;;;;;8.68;100.00;101855.92;1712151;83;25455;-64
2022/11/13 04:04:22;;;;;;;45.28;24.32;;;;;;;8.67;100.00;101844.87;1687712;83;27348;-64
2022/11/13 04:06:50;;;;;;;44.05;24.47;;;;;;;8.69;100.00;101850.81;1712067;82;25424;-64
2022/11/13 04:09:20;;;;;;;45.80;24.30;;;;;;;8.68;100.00;101851.88;1712367;83;25614;-64
2022/11/13 04:11:46;;;;;;;;;;;;;;;8.76;100.00;101861.39;1714765;83;25640;-64
2022/11/13 04:14:16;;;;;;;44.77;22.73;;;;;;;8.68;100.00;101844.33;1712236;83;32792;-64
2022/11/13 04:16:42;;;;;;;44.38;24.77;;;;;;;8.67;100.00;101838.67;1712123;83;27346;-64
2022/11/13 04:19:09;;;;;;;42.20;23.45;;;;;;;8.67;100.00;101840.02;1712037;83;25546;-64
2022/11/13 04:21:35;;;;;;;46.42;24.30;;;;;;;8.65;100.00;101838.92;1712163;83;29668;-64
2022/11/13 04:24:01;;;;;;;44.15;24.20;;;;;;;8.64;100.00;101848.08;1712120;83;25579;-64
2022/11/13 04:26:27;;;;;;;44.58;23.02;;;;;;;8.64;100.00;101844.58;1712161;83;25548;-64
2022/11/13 04:28:55;;;;;;;47.73;24.70;;;;;;;8.63;100.00;101851.83;1712129;83;27381;-64
2022/11/13 04:31:21;;;;;;;41.08;22.87;;;;;;;8.64;100.00;101858.87;1712065;83;25842;-64
2022/11/13 04:33:47;;;;;;;50.30;25.17;;;;;;;8.63;100.00;101855.08;1711954;83;25673;-64
2022/11/13 04:36:13;;;;;;;47.10;25.15;;;;;;;8.64;100.00;101859.41;1712089;83;35153;-64
2022/11/13 04:38:39;;;;;;;46.42;25.37;;;;;;;8.62;100.00;101860.20;1712159;83;32348;-65
2022/11/13 04:43:53;;;;;;;46.10;24.80;;;;;;;8.63;100.00;101863.97;1712144;83;25204;-64
2022/11/13 04:46:22;;;;;;;48.33;24.60;;;;;;;8.63;100.00;101859.92;1712237;83;25533;-64
2022/11/13 04:48:48;;;;;;;43.15;23.98;;;;;;;8.61;100.00;101863.42;1712214;83;25435;-64
2022/11/13 04:51:14;;;;;;;44.23;24.75;;;;;;;8.63;100.00;101862.62;1712096;81;25397;-64
2022/11/13 04:53:43;;;;;;;44.95;24.63;;;;;;;8.63;100.00;101864.52;1712105;83;27281;-64
2022/11/13 04:56:10;;;;;;;40.85;22.27;;;;;;;8.62;100.00;101866.41;1712141;83;28302;-64
2022/11/13 04:58:36;;;;;;;43.58;23.65;;;;;;;8.62;100.00;101872.34;1712138;83;25566;-64
2022/11/13 05:01:03;;;;;;;46.02;24.43;;;;;;;8.61;100.00;101872.86;1687436;83;25511;-64
2022/11/13 05:03:31;;;;;;;48.33;24.33;;;;;;;8.62;100.00;101865.60;1712419;83;25464;-64
2022/11/13 05:06:06;;;;;;;47.38;24.07;;;;;;;8.60;100.00;101866.66;1712092;83;27384;-64
2022/11/13 05:08:34;;;;;;;52.70;24.67;;;;;;;8.59;100.00;101867.72;1712134;83;25433;-65
2022/11/13 05:11:04;;;;;;;45.88;23.57;;;;;;;8.60;100.00;101868.55;1712161;83;25474;-64
2022/11/13 05:13:34;;;;;;;43.42;23.18;;;;;;;8.60;100.00;101875.30;1712222;83;25631;-64
2022/11/13 05:16:06;;;;;;;48.28;24.25;;;;;;;8.62;100.00;101877.74;1712283;83;25460;-64
2022/11/13 05:18:36;;;;;;;47.08;25.12;;;;;;;8.61;100.00;101871.52;1712163;83;28744;-64
2022/11/13 05:21:09;;;;;;;46.13;24.82;;;;;;;8.63;100.00;101866.67;1712256;83;25408;-64
2022/11/13 05:23:37;;;;;;;47.20;23.52;;;;;;;8.64;100.00;101873.70;1712333;83;25406;-64
2022/11/13 05:26:14;;;;;;;45.58;24.15;;;;;;;8.63;100.00;101873.41;1712249;83;25562;-64
2022/11/13 05:28:40;;;;;;;48.05;23.32;;;;;;;8.65;100.00;101881.25;1712221;83;25634;-64
2022/11/13 05:31:14;;;;;;;41.25;23.38;;;;;;;8.65;100.00;101886.64;1712235;83;27426;-64
2022/11/13 05:33:44;;;;;;;44.38;23.95;;;;;;;8.64;100.00;101877.75;1712053;82;25464;-64
2022/11/13 05:36:15;;;;;;;46.18;23.12;;;;;;;8.63;100.00;101882.84;1712237;83;25556;-63
2022/11/13 05:38:45;;;;;;;41.73;22.73;;;;;;;8.63;100.00;101876.66;1712240;83;26103;-63
2022/11/13 05:41:18;;;;;;;41.35;22.30;;;;;;;8.62;100.00;101873.15;1712250;83;25429;-64
2022/11/13 05:43:48;;;;;;;41.95;22.73;;;;;;;8.62;100.00;101884.48;1712296;83;27419;-64
2022/11/13 05:46:21;;;;;;;40.40;21.37;;;;;;;8.62;100.00;101889.34;1712186;83;25776;-64
2022/11/13 05:48:55;;;;;;;40.12;21.68;;;;;;;8.62;100.00;101895.27;1712245;83;25623;-64
2022/11/13 05:51:32;;;;;;;39.45;20.00;;;;;;;8.58;100.00;101894.95;1712136;83;25594;-64
2022/11/13 05:54:02;;;;;;;41.20;21.60;;;;;;;8.56;100.00;101897.92;1712405;83;25459;-64
2022/11/13 05:56:33;;;;;;;39.45;20.92;;;;;;;8.55;100.00;101894.13;1712170;83;27342;-64
2022/11/13 05:59:03;;;;;;;33.20;19.25;;;;;;;8.55;100.00;101890.09;1712179;83;25559;-64
2022/11/13 06:01:35;;;;;;;36.33;20.60;;;;;;;8.52;100.00;101886.00;1712298;83;25618;-64
2022/11/13 06:04:06;;;;;;;37.88;20.72;;;;;;;8.52;100.00;101886.55;1711089;83;25929;-64
2022/11/13 06:06:34;;;;;;;37.65;20.43;;;;;;;8.50;100.00;101890.05;1712322;83;25571;-64
2022/11/13 06:09:07;;;;;;;35.98;20.30;;;;;;;8.51;100.00;101897.05;1712343;83;27468;-64
2022/11/13 06:11:33;;;;;;;36.42;19.42;;;;;;;8.51;100.00;101884.91;1712162;83;25607;-64
2022/11/13 06:14:01;;;;;;;35.63;18.75;;;;;;;8.50;100.00;101887.34;1712221;83;25390;-64
2022/11/13 06:16:38;;;;;;;37.75;20.23;;;;;;;8.50;100.00;101888.69;1712205;83;25442;-64
2022/11/13 06:19:10;;;;;;;36.28;19.90;;;;;;;8.53;100.00;101889.50;1712269;83;25652;-64
2022/11/13 06:21:42;;;;;;;37.28;20.10;;;;;;;8.53;100.00;101888.16;1712233;83;27461;-63
2022/11/13 06:24:12;;;;;;;36.30;19.65;;;;;;;8.56;100.00;101891.19;1712165;83;25818;-64
2022/11/13 06:26:40;;;;;;;33.83;19.10;;;;;;;8.57;100.00;101896.03;1712320;83;25600;-64
2022/11/13 06:29:11;;;;;;;35.60;19.67;;;;;;;8.59;100.00;101893.89;1712292;83;25646;-64
2022/11/13 06:31:40;;;;;;;35.73;19.17;;;;;;;8.60;100.00;101903.63;1712311;83;25406;-63
2022/11/13 06:34:08;;;;;;;38.88;20.43;;;;;;;8.58;100.00;101902.52;1710015;83;27390;-63
2022/11/13 06:36:38;;;;;;;35.80;19.60;;;;;;;8.60;100.00;101898.23;1705537;84;25632;-64
2022/11/13 06:39:10;;;;;;;35.52;19.00;;;;;;;8.62;100.00;101901.47;1705607;84;25447;-64
2022/11/13 06:41:38;;;;;;;33.48;18.75;;;;;;;8.64;100.00;101902.02;1705590;84;25453;-64
2022/11/13 06:44:05;;;;;;;37.48;20.77;;;;;;;8.66;100.00;101899.88;1705630;84;25725;-64
2022/11/13 06:46:33;;;;;;;35.00;18.87;;;;;;;8.68;100.00;101899.08;1705607;84;27935;-64
2022/11/13 06:49:01;;;;;;;33.50;19.15;;;;;;;8.71;100.00;101899.12;1705491;84;25473;-64
2022/11/13 06:51:31;;;;;;;36.45;18.95;;;;;;;8.72;100.00;101900.76;1705588;84;25628;-64
2022/11/13 06:53:59;;;;;;;37.55;18.82;;;;;;;8.75;100.00;101895.66;1705675;84;25995;-64
2022/11/13 06:56:27;;;;;;;34.88;20.10;;;;;;;8.79;100.00;101898.11;1705602;84;25385;-64
2022/11/13 06:58:57;;;;;;;34.05;18.73;;;;;;;8.81;100.00;101900.55;1705602;84;27342;-64
2022/11/13 07:01:26;;;;;;;;;;;;;;;8.81;100.00;101905.95;1708061;84;25848;-64
2022/11/13 07:03:52;;;;;;;;;;;;;;;8.83;100.00;101911.09;1708136;84;25612;-64
2022/11/13 07:06:24;;;;;;;33.92;18.37;;;;;;;8.83;100.00;101909.73;1705560;84;25422;-64
2022/11/13 07:08:53;;;;;;;35.70;19.52;;;;;;;8.81;100.00;101908.64;1705643;84;25554;-64
2022/11/13 07:11:24;;;;;;;32.65;18.98;;;;;;;8.80;100.00;101905.66;1705676;84;26898;-64
2022/11/13 07:13:50;;;;;;;39.58;20.32;;;;;;;8.79;100.00;101902.70;1705493;84;25394;-64
2022/11/13 07:16:19;;;;;;;36.88;20.08;;;;;;;8.81;100.00;101907.84;1705504;84;25469;-64
2022/11/13 07:18:53;;;;;;;35.90;19.15;;;;;;;8.78;100.00;101897.84;1705669;84;25564;-64
2022/11/13 07:21:24;;;;;;;37.65;19.73;;;;;;;8.76;100.00;101891.87;1705646;84;25566;-64
2022/11/13 07:23:52;;;;;;;39.35;19.98;;;;;;;8.76;100.00;101897.27;1705611;84;27521;-64
2022/11/13 07:26:20;;;;;;;39.88;20.35;;;;;;;8.77;100.00;101900.25;1705526;84;25548;-64
2022/11/13 07:28:52;;;;;;;36.25;19.80;;;;;;;8.78;100.00;101903.76;1705477;84;25575;-64
2022/11/13 07:31:20;;;;;;;38.63;20.80;;;;;;;8.81;100.00;101903.80;1705560;84;25451;-64
2022/11/13 07:33:51;;;;;;;37.05;19.30;;;;;;;8.81;100.00;101901.90;1705568;83;25441;-64
2022/11/13 07:36:19;;;;;;;38.50;19.50;;;;;;;8.83;100.00;101901.09;1705487;84;27346;-63
2022/11/13 07:38:45;;;;;;;40.63;20.45;;;;;;;8.83;100.00;101896.25;1705472;84;25568;-64
2022/11/13 07:41:13;;;;;;;38.20;19.35;;;;;;;8.85;100.00;101886.81;1705556;84;25475;-64
2022/11/13 07:43:39;;;;;;;38.78;20.10;;;;;;;8.85;100.00;101890.05;1705538;84;25638;-64
2022/11/13 07:46:06;;;;;;;35.38;18.15;;;;;;;8.87;100.00;101894.64;1705587;84;25588;-64
2022/11/13 07:48:32;;;;;;;33.23;17.95;;;;;;;8.88;100.00;101897.64;1685049;84;27444;-64
2022/11/13 07:51:03;;;;;;;33.10;18.70;;;;;;;8.87;100.00;101898.69;1705453;84;25463;-64
2022/11/13 07:53:31;;;;;;;34.70;19.23;;;;;;;8.86;100.00;101896.54;1705560;84;25609;-64
2022/11/13 07:56:03;;;;;;;33.65;18.73;;;;;;;8.84;100.00;101892.48;1705542;84;25497;-64
2022/11/13 07:58:31;;;;;;;33.18;18.17;;;;;;;8.83;100.00;101894.90;1705623;84;25651;-64
2022/11/13 08:01:05;;;;;;;34.73;19.00;;;;;;;8.81;100.00;101889.75;1705625;84;27413;-64
2022/11/13 08:03:35;;;;;;;34.18;18.57;;;;;;;8.83;100.00;101897.59;1705528;84;25583;-64
2022/11/13 08:06:05;;;;;;;35.05;19.62;;;;;;;8.85;100.00;101896.25;1705715;84;25533;-64
2022/11/13 08:08:35;;;;;;;34.20;18.05;;;;;;;8.87;100.00;101898.69;1705563;84;25612;-64
2022/11/13 08:11:09;;;;;;;31.93;18.27;;;;;;;8.89;100.00;101887.94;1705591;84;25447;-64
2022/11/13 08:13:37;;;;;;;33.15;18.07;;;;;;;8.92;100.00;101896.88;1705628;84;28290;-64
2022/11/13 08:16:07;;;;;;;33.63;18.10;;;;;;;8.95;100.00;101890.93;1705470;84;25467;-64
2022/11/13 08:18:34;;;;;;;33.35;17.65;;;;;;;8.97;100.00;101894.72;1705505;84;25457;-63
2022/11/13 08:21:05;;;;;;;38.02;18.90;;;;;;;8.98;100.00;101894.47;1705468;84;25455;-64
2022/11/13 08:23:33;;;;;;;38.30;20.05;;;;;;;8.95;100.00;101892.28;1705571;84;25580;-64
2022/11/13 08:26:05;;;;;;;34.10;18.40;;;;;;;8.95;100.00;101890.93;1705536;84;27329;-64
2022/11/13 08:28:35;;;;;;;34.23;18.15;;;;;;;8.94;100.00;101897.42;1705405;84;27244;-64
2022/11/13 08:31:07;;;;;;;35.17;19.30;;;;;;;8.94;100.00;101891.22;1722690;82;25608;-64
2022/11/13 08:33:33;;;;;;;36.60;18.60;;;;;;;8.97;100.00;101888.81;1734781;82;25643;-64
2022/11/13 08:36:01;;;;;;;39.27;20.17;;;;;;;8.97;100.00;101894.21;1734824;82;25452;-64
2022/11/13 08:38:27;;;;;;;38.02;19.77;;;;;;;8.99;100.00;101891.25;1735003;82;27340;-64
2022/11/13 08:40:59;;;;;;;36.63;20.12;;;;;;;9.02;100.00;101892.61;1734760;82;25647;-64
2022/11/13 08:43:27;;;;;;;36.98;20.37;;;;;;;9.03;100.00;101891.00;1735025;82;25410;-64
2022/11/13 08:45:54;;;;;;;35.83;20.05;;;;;;;9.04;100.00;101891.80;1734906;82;25573;-64
2022/11/13 08:48:25;;;;;;;36.10;19.48;;;;;;;9.08;100.00;101896.98;1735070;82;25550;-64
2022/11/13 08:50:56;;;;;;;34.05;18.80;;;;;;;9.08;100.00;101890.23;1735149;82;27336;-64
2022/11/13 08:53:26;;;;;;;38.17;19.60;;;;;;;9.05;100.00;101894.80;1735029;82;25450;-63
2022/11/13 08:55:54;;;;;;;33.10;18.02;;;;;;;9.05;100.00;101902.34;1735104;82;25634;-64
2022/11/13 08:58:20;;;;;;;35.00;18.82;;;;;;;9.07;100.00;101902.09;1734983;82;25417;-64
2022/11/13 09:00:49;;;;;;;28.83;16.40;;;;;;;9.06;100.00;101903.15;1735061;82;25471;-64
2022/11/13 09:03:18;;;;;;;31.45;17.12;;;;;;;9.05;100.00;101905.05;1735201;82;28287;-65
2022/11/13 09:05:45;;;;;;;;;;;;;;;9.01;100.00;101906.65;1737555;82;25513;-65
2022/11/13 09:08:11;;;;;;;31.50;16.85;;;;;;;9.00;100.00;101898.80;1735057;82;25613;-65
2022/11/13 09:10:40;;;;;;;34.83;18.40;;;;;;;9.01;100.00;101904.46;1734999;82;25606;-64
2022/11/13 09:13:10;;;;;;;35.28;17.50;;;;;;;8.95;100.00;101894.17;1735163;82;25640;-65
2022/11/13 09:15:41;;;;;;;29.85;17.00;;;;;;;8.95;100.00;101894.17;1735035;82;27334;-65
2022/11/13 09:18:11;;;;;;;32.93;16.70;;;;;;;8.93;100.00;101894.43;1735019;82;25478;-64
2022/11/13 09:20:37;;;;;;;32.23;15.95;;;;;;;8.90;100.00;101883.34;1735018;82;25548;-64
2022/11/13 09:23:09;;;;;;;30.82;16.45;;;;;;;8.90;100.00;101890.09;1735013;82;25409;-64
2022/11/13 09:25:37;;;;;;;33.80;16.37;;;;;;;8.89;100.00;101886.59;1735122;82;25453;-64
2022/11/13 09:28:08;;;;;;;31.50;16.55;;;;;;;8.87;100.00;101887.39;1735065;82;27348;-64
2022/11/13 09:30:40;;;;;;;32.78;16.05;;;;;;;8.87;100.00;101879.29;1734997;82;25402;-64
2022/11/13 09:33:06;;;;;;;30.45;16.23;;;;;;;8.88;100.00;101880.90;1735058;82;25575;-64
2022/11/13 09:35:34;;;;;;;28.77;15.28;;;;;;;8.91;100.00;101880.94;1737901;82;25379;-64
2022/11/13 09:38:07;;;;;;;29.95;15.65;;;;;;;8.91;100.00;101883.63;1741950;82;25611;-64
2022/11/13 09:41:01;;;;;;;28.47;15.72;;;;;;;8.88;100.00;101874.70;1741893;82;27209;-64
2022/11/13 09:43:55;;;;;;;31.73;17.45;;;;;;;8.87;100.00;101874.41;1741740;82;25439;-64
2022/11/13 09:46:39;;;;;;;35.40;17.70;;;;;;;8.88;100.00;101870.65;1741971;82;25568;-63
2022/11/13 09:49:23;;;;;;;26.87;15.13;;;;;;;8.86;100.00;101870.10;1741872;82;25409;-63
2022/11/13 09:51:54;;;;;;;26.55;14.30;;;;;;;8.85;100.00;101865.22;1741658;82;25409;-64
2022/11/13 09:54:25;;;;;;;27.05;14.75;;;;;;;8.84;100.00;101873.06;1741909;82;28337;-64
2022/11/13 09:57:33;;;;;;;25.30;14.05;;;;;;;8.79;100.00;101871.67;1741904;82;25587;-64
2022/11/13 10:00:09;;;;;;;27.22;14.60;;;;;;;8.80;100.00;101881.37;1740712;82;25752;-63
2022/11/13 10:03:06;;;;;;;26.48;15.30;;;;;;;8.80;100.00;101870.58;1741853;82;25824;-64
2022/11/13 10:05:47;;;;;;;25.10;14.18;;;;;;;8.83;100.00;101871.96;1741887;82;25508;-64
2022/11/13 10:08:41;;;;;;;25.72;15.15;;;;;;;8.85;100.00;101870.62;1723636;82;27370;-63
2022/11/13 10:11:37;;;;;;;26.17;14.30;;;;;;;8.85;100.00;101868.47;1653351;86;25503;-63
2022/11/13 10:14:19;;;;;;;23.77;14.98;;;;;;;8.84;100.00;101864.16;1653594;86;25442;-64
2022/11/13 10:16:50;;;;;;;22.62;13.45;;;;;;;8.84;100.00;101860.91;1652478;86;26470;-64
2022/11/13 10:19:29;;;;;;;24.12;14.43;;;;;;;8.87;100.00;101860.92;1653706;86;25591;-64
2022/11/13 10:22:21;;;;;;;24.25;14.40;;;;;;;8.87;100.00;101862.27;1653583;86;27528;-62
2022/11/13 10:24:53;;;;;;;22.80;13.75;;;;;;;8.87;100.00;101858.22;1653569;86;25452;-63
2022/11/13 10:27:22;;;;;;;19.48;12.78;;;;;;;8.84;100.00;101852.82;1653557;86;25577;-63
2022/11/13 10:29:50;;;;;;;23.27;12.67;;;;;;;8.85;100.00;101850.92;1653785;86;25494;-63
2022/11/13 10:32:27;;;;;;;23.45;12.80;;;;;;;8.85;100.00;101847.69;1653603;86;25993;-63
2022/11/13 10:35:07;;;;;;;24.18;11.53;;;;;;;8.89;100.00;101852.05;1653581;86;27348;-63
2022/11/13 10:38:09;;;;;;;23.83;12.45;;;;;;;8.92;100.00;101852.86;1653561;86;25544;-64
2022/11/13 10:40:39;;;;;;;22.82;11.70;;;;;;;8.94;100.00;101854.23;1617727;88;25761;-62
2022/11/13 10:43:22;;;;;;;20.90;12.23;;;;;;;8.97;100.00;101847.49;1617740;88;25553;-63
2022/11/13 10:45:59;;;;;;;21.02;12.20;;;;;;;9.00;100.00;101843.48;1617751;88;25528;-63
2022/11/13 10:48:33;;;;;;;18.85;12.25;;;;;;;9.05;100.00;101842.16;1673172;84;28240;-64
2022/11/13 10:51:34;;;;;;;22.58;12.47;;;;;;;9.05;100.00;101834.87;1700992;84;25540;-63
2022/11/13 10:54:00;;;;;;;21.57;12.73;;;;;;;9.08;100.00;101837.59;1674950;85;25481;-63
2022/11/13 10:56:34;;;;;;;21.55;11.97;;;;;;;9.10;100.00;101839.49;1646257;87;25483;-63
2022/11/13 10:59:19;;;;;;;22.85;12.05;;;;;;;9.11;100.00;101837.88;1675089;85;25678;-65
2022/11/13 11:01:49;;;;;;;20.80;12.58;;;;;;;9.11;100.00;101828.98;1646194;87;27391;-63
2022/11/13 11:04:26;;;;;;;24.70;13.32;;;;;;;9.12;100.00;101827.89;1674918;85;25766;-63
2022/11/13 11:07:00;;;;;;;21.37;12.23;;;;;;;9.14;100.00;101829.78;1646282;87;25499;-63
2022/11/13 11:09:36;;;;;;;25.20;11.90;;;;;;;9.16;100.00;101830.36;1674928;85;25964;-64
2022/11/13 11:12:15;;;;;;;25.20;12.53;;;;;;;9.16;100.00;101830.36;1646272;87;25554;-64
2022/11/13 11:15:11;;;;;;;22.42;12.63;;;;;;;9.18;100.00;101832.77;1673796;85;28088;-64
2022/11/13 11:18:00;;;;;;;20.65;12.23;;;;;;;9.19;100.00;101831.70;1645683;87;25733;-63
2022/11/13 11:20:52;;;;;;;24.60;13.13;;;;;;;9.24;100.00;101837.94;1646956;87;25697;-63
2022/11/13 11:23:39;;;;;;;25.35;13.30;;;;;;;9.28;100.00;101838.22;1675067;84;25659;-64
2022/11/13 11:26:28;;;;;;;28.42;14.45;;;;;;;9.29;100.00;101837.16;1675638;85;25769;-64
2022/11/13 11:29:22;;;;;;;30.37;15.10;;;;;;;9.28;100.00;101835.00;1646750;87;28081;-64
2022/11/13 11:32:03;;;;;;;30.27;15.50;;;;;;;9.29;100.00;101837.96;1741561;82;25626;-64
2022/11/13 11:34:35;;;;;;;30.37;16.17;;;;;;;9.30;100.00;101832.05;1740181;82;25550;-64